Time;durP1;ratioP1;P1;durP2;ratioP2;P2;SDS_P1;SDS_P2;PMS_P1;PMS_P2;Temp;Humidity;BMP_temperature;BMP_pressure;BME280_temperature;BME280_humidity;BME280_pressure;Samples;Min_cycle;Max_cycle;Signal;HPM_P1;HPM_P2
2022/03/21 00:03:19;;;;;;;;;;;10.20;1.00;;;;;;10408670;28;86001;-58
2022/03/21 00:08:22;;;;;;;;;;;10.20;1.00;;;;;;10389566;28;86186;-56
2022/03/21 00:13:23;;;;;;;;;;;10.20;1.00;;;;;;10406817;28;84532;-57
2022/03/21 00:18:25;;;;;;;;;;;10.10;1.00;;;;;;10408027;28;84234;-57
2022/03/21 00:23:26;;;;;;;;;;;10.00;99.90;;;;;;10410719;28;84272;-57
2022/03/21 00:28:27;;;;;;;;;;;9.90;99.90;;;;;;10412015;28;84963;-58
2022/03/21 00:33:27;;;;;;;;;;;9.90;99.90;;;;;;10408268;28;86754;-60
2022/03/21 00:38:28;;;;;;;;;;;9.90;99.90;;;;;;10406421;28;86081;-56
2022/03/21 00:43:28;;;;;;;;;;;9.80;99.90;;;;;;10407907;28;85457;-57
2022/03/21 00:48:30;;;;;;;;;;;9.70;99.90;;;;;;10389057;28;87406;-56
2022/03/21 00:53:30;;;;;;;;;;;9.70;1.00;;;;;;10453713;22;85323;-54
2022/03/21 00:58:31;;;;;;;;;;;9.60;1.00;;;;;;10450454;28;84174;-53
2022/03/21 01:03:31;;;;;;;;;;;9.60;1.00;;;;;;10429618;28;85072;-54
2022/03/21 01:08:32;;;;;;;;;;;9.60;1.00;;;;;;10410176;28;84161;-53
2022/03/21 01:13:33;;;;;;;;;;;9.50;1.00;;;;;;10415249;28;84923;-52
2022/03/21 01:18:34;;;;;;;;;;;9.40;1.00;;;;;;10411497;28;85064;-54
2022/03/21 01:23:34;;;;;;;;;;;9.40;1.00;;;;;;10415545;28;84259;-52
2022/03/21 01:28:35;;;;;;;;;;;9.40;1.00;;;;;;10415483;28;90103;-56
2022/03/21 01:33:36;;;;;;;;;;;9.40;1.00;;;;;;10415738;28;85093;-54
2022/03/21 01:38:37;;;;;;;;;;;9.60;99.90;;;;;;10416252;28;84238;-53
2022/03/21 01:43:56;;;;;;;;;;;9.50;99.90;;;;;;10415545;28;84940;-53
2022/03/21 01:48:57;;;;;;;;;;;9.50;99.90;;;;;;10414980;28;84027;-53
2022/03/21 01:59:21;;;;;;;;;;;9.50;99.90;;;;;;10415027;28;85054;-55
2022/03/21 02:04:22;;;;;;;;;;;9.50;99.90;;;;;;10413940;28;85048;-55
2022/03/21 02:09:22;;;;;;;;;;;9.60;99.90;;;;;;10396196;28;86786;-53
2022/03/21 02:14:24;;;;;;;;;;;9.50;99.90;;;;;;10415396;28;84788;-55
2022/03/21 02:19:29;;;;;;;;;;;9.50;99.90;;;;;;10413797;28;84958;-55
2022/03/21 02:24:50;;;;;;;;;;;9.50;99.90;;;;;;10414735;28;84314;-52
2022/03/21 02:29:51;;;;;;;;;;;9.50;1.00;;;;;;10414405;28;84786;-52
2022/03/21 02:34:53;;;;;;;;;;;9.40;1.00;;;;;;10414867;28;84882;-54
2022/03/21 02:39:55;;;;;;;;;;;9.40;1.00;;;;;;10413181;28;84192;-56
2022/03/21 02:44:56;;;;;;;;;;;9.50;99.90;;;;;;10395518;28;85760;-53
2022/03/21 02:49:57;;;;;;;;;;;9.40;99.90;;;;;;10413037;28;84896;-52
2022/03/21 02:54:58;;;;;;;;;;;9.40;99.90;;;;;;10413306;28;84023;-54
2022/03/21 02:59:59;;;;;;;;;;;9.30;99.90;;;;;;10413060;28;85405;-52
2022/03/21 03:04:59;;;;;;;;;;;9.30;1.00;;;;;;10412914;28;85298;-53
2022/03/21 03:10:00;;;;;;;;;;;9.20;1.00;;;;;;10409234;28;84562;-54
2022/03/21 03:15:01;;;;;;;;;;;9.30;1.00;;;;;;10413235;28;84205;-50
2022/03/21 03:20:02;;;;;;;;;;;9.20;1.00;;;;;;10410671;28;86951;-52
2022/03/21 03:25:03;;;;;;;;;;;9.20;1.00;;;;;;10413020;28;84235;-55
2022/03/21 03:30:04;;;;;;;;;;;9.10;1.00;;;;;;10410654;28;84780;-55
2022/03/21 03:35:04;;;;;;;;;;;9.10;1.00;;;;;;10413128;28;84787;-50
2022/03/21 03:40:05;;;;;;;;;;;9.00;1.00;;;;;;10411371;28;85249;-54
2022/03/21 03:45:06;;;;;;;;;;;8.90;1.00;;;;;;10412205;28;86202;-52
2022/03/21 03:50:07;;;;;;;;;;;8.80;1.00;;;;;;10409895;28;87097;-50
2022/03/21 03:55:08;;;;;;;;;;;8.80;1.00;;;;;;10409226;28;84990;-52
2022/03/21 04:00:09;;;;;;;;;;;8.60;1.00;;;;;;10411611;28;84721;-52
2022/03/21 04:05:14;;;;;;;;;;;8.60;1.00;;;;;;10411533;28;84204;-53
2022/03/21 04:10:15;;;;;;;;;;;8.50;1.00;;;;;;10408727;28;84121;-55
2022/03/21 04:15:19;;;;;;;;;;;8.40;1.00;;;;;;10403014;28;86080;-55
2022/03/21 04:20:23;;;;;;;;;;;8.40;1.00;;;;;;10408137;28;84968;-51
2022/03/21 04:25:24;;;;;;;;;;;8.30;1.00;;;;;;10406302;28;85610;-57
2022/03/21 04:30:24;;;;;;;;;;;8.30;1.00;;;;;;10399621;28;84818;-54
2022/03/21 04:35:25;;;;;;;;;;;8.20;1.00;;;;;;10408505;28;86128;-56
2022/03/21 04:40:25;;;;;;;;;;;8.10;1.00;;;;;;10407727;28;85321;-51
2022/03/21 04:45:26;;;;;;;;;;;8.10;1.00;;;;;;10402612;28;85904;-56
2022/03/21 04:50:27;;;;;;;;;;;8.00;1.00;;;;;;10405338;28;84006;-53
2022/03/21 04:55:28;;;;;;;;;;;8.00;1.00;;;;;;10409142;28;84208;-54
2022/03/21 05:00:28;;;;;;;;;;;7.90;1.00;;;;;;10409981;28;84014;-52
2022/03/21 05:05:29;;;;;;;;;;;7.90;1.00;;;;;;10407424;28;86766;-51
2022/03/21 05:10:30;;;;;;;;;;;8.00;1.00;;;;;;10407938;28;84723;-53
2022/03/21 05:15:30;;;;;;;;;;;7.90;1.00;;;;;;10407021;28;84265;-54
2022/03/21 05:20:31;;;;;;;;;;;7.70;1.00;;;;;;10406807;28;84130;-54
2022/03/21 05:30:58;;;;;;;;;;;7.60;1.00;;;;;;10406678;28;85112;-55
2022/03/21 05:35:58;;;;;;;;;;;7.50;1.00;;;;;;10406246;28;84047;-55
2022/03/21 05:41:00;;;;;;;;;;;7.50;1.00;;;;;;10405727;28;84315;-55
2022/03/21 05:46:01;;;;;;;;;;;7.50;1.00;;;;;;10402962;28;87847;-56
2022/03/21 05:51:01;;;;;;;;;;;7.40;1.00;;;;;;10406293;28;84132;-52
2022/03/21 05:56:02;;;;;;;;;;;7.30;1.00;;;;;;10414194;28;84633;-55
2022/03/21 06:01:03;;;;;;;;;;;7.30;1.00;;;;;;10414173;28;84771;-57
2022/03/21 06:06:04;;;;;;;;;;;7.30;1.00;;;;;;10414294;28;84236;-54
2022/03/21 06:11:04;;;;;;;;;;;7.40;1.00;;;;;;10414598;28;86181;-55
2022/03/21 06:16:06;;;;;;;;;;;7.40;1.00;;;;;;10410239;28;84705;-56
2022/03/21 06:21:07;;;;;;;;;;;7.50;1.00;;;;;;10413680;28;84217;-56
2022/03/21 06:26:08;;;;;;;;;;;7.50;1.00;;;;;;10413385;28;84190;-58
2022/03/21 06:31:09;;;;;;;;;;;7.70;1.00;;;;;;10412931;28;86235;-55
2022/03/21 06:36:09;;;;;;;;;;;7.80;1.00;;;;;;10408810;28;85032;-55
2022/03/21 06:41:10;;;;;;;;;;;8.00;1.00;;;;;;10407073;28;84413;-56
2022/03/21 06:46:10;;;;;;;;;;;8.30;1.00;;;;;;10409443;28;84471;-56
2022/03/21 06:51:11;;;;;;;;;;;8.70;1.00;;;;;;10412918;28;84371;-55
2022/03/21 06:56:12;;;;;;;;;;;8.90;1.00;;;;;;10501503;22;85756;-53
2022/03/21 07:01:12;;;;;;;;;;;8.90;99.90;;;;;;10495589;27;84020;-53
2022/03/21 07:06:13;;;;;;;;;;;9.00;99.90;;;;;;10457696;27;84939;-50
2022/03/21 07:11:14;;;;;;;;;;;9.20;99.90;;;;;;10453663;28;84848;-54
2022/03/21 07:16:16;;;;;;;;;;;9.60;1.00;;;;;;10452578;27;85983;-56
2022/03/21 07:21:16;;;;;;;;;;;9.80;1.00;;;;;;10458091;27;85165;-53
2022/03/21 07:26:17;;;;;;;;;;;10.30;1.00;;;;;;10455142;27;85301;-57
2022/03/21 07:31:18;;;;;;;;;;;10.70;91.20;;;;;;10454645;28;84093;-53
2022/03/21 07:36:18;;;;;;;;;;;11.30;1.00;;;;;;10455720;27;85792;-53
2022/03/21 07:41:19;;;;;;;;;;;11.50;1.00;;;;;;10453532;27;84028;-53
2022/03/21 07:51:39;;;;;;;;;;;12.60;99.90;;;;;;10457303;28;83978;-57
2022/03/21 07:56:40;;;;;;;;;;;12.80;1.00;;;;;;10451483;27;84855;-54
2022/03/21 08:01:40;;;;;;;;;;;13.10;1.00;;;;;;10454123;27;84111;-50
2022/03/21 08:06:43;;;;;;;;;;;13.60;1.00;;;;;;10455141;27;85857;-53
2022/03/21 08:11:45;;;;;;;;;;;13.80;1.00;;;;;;10452926;28;84170;-55
2022/03/21 08:16:46;;;;;;;;;;;13.90;99.90;;;;;;10454301;28;84899;-55
2022/03/21 08:21:47;;;;;;;;;;;14.30;99.90;;;;;;10449467;28;85891;-52
2022/03/21 08:26:47;;;;;;;;;;;14.90;1.00;;;;;;10450946;28;84089;-56
2022/03/21 08:31:48;;;;;;;;;;;15.40;99.90;;;;;;10452000;28;84962;-53
2022/03/21 08:36:48;;;;;;;;;;;16.10;1.00;;;;;;10450732;27;84917;-51
2022/03/21 08:41:49;;;;;;;;;;;16.60;1.00;;;;;;10451615;27;83951;-55
2022/03/21 08:46:49;;;;;;;;;;;17.00;99.90;;;;;;10450284;28;84936;-56
2022/03/21 08:51:50;;;;;;;;;;;17.30;99.90;;;;;;10451935;28;84065;-54
2022/03/21 08:56:51;;;;;;;;;;;17.70;1.00;;;;;;10451868;28;85186;-54
2022/03/21 09:01:51;;;;;;;;;;;18.20;1.00;;;;;;10451864;27;84266;-55
2022/03/21 09:06:52;;;;;;;;;;;18.40;1.00;;;;;;10451365;27;84242;-54
2022/03/21 09:11:52;;;;;;;;;;;18.40;1.00;;;;;;10451306;28;85118;-55
2022/03/21 09:16:53;;;;;;;;;;;18.40;1.00;;;;;;10449188;28;84951;-55
2022/03/21 09:21:54;;;;;;;;;;;19.00;1.00;;;;;;10451672;27;84716;-54
2022/03/21 09:26:54;;;;;;;;;;;19.10;99.90;;;;;;10451108;27;84182;-54
2022/03/21 09:31:55;;;;;;;;;;;19.60;99.90;;;;;;10458804;28;84220;-52
2022/03/21 09:36:55;;;;;;;;;;;19.80;99.90;;;;;;10458879;27;84765;-57
2022/03/21 09:41:56;;;;;;;;;;;20.40;99.90;;;;;;10458959;27;84171;-56
2022/03/21 09:46:59;;;;;;;;;;;20.60;99.90;;;;;;10457418;27;84774;-55
2022/03/21 09:52:02;;;;;;;;;;;21.00;99.90;;;;;;10461274;27;84853;-57
2022/03/21 09:57:04;;;;;;;;;;;21.50;99.90;;;;;;10440023;28;86470;-57
2022/03/21 10:02:07;;;;;;;;;;;22.00;99.90;;;;;;10458642;27;84428;-55
2022/03/21 10:07:07;;;;;;;;;;;21.80;99.90;;;;;;10457813;28;84945;-58
2022/03/21 10:12:09;;;;;;;;;;;22.30;99.90;;;;;;10458025;28;84945;-58
2022/03/21 10:17:11;;;;;;;;;;;22.60;99.90;;;;;;10457167;27;84259;-57
2022/03/21 10:22:14;;;;;;;15.77;9.77;;;22.70;99.90;;;;;;10456067;27;84752;-53
2022/03/21 10:27:31;;;;;;;16.00;9.48;;;22.40;99.90;;;;;;10454046;28;85859;-59
2022/03/21 10:32:51;;;;;;;14.57;9.68;;;22.70;99.90;;;;;;10454968;27;84766;-55
2022/03/21 10:37:55;;;;;;;15.65;9.75;;;22.80;99.90;;;;;;10457153;27;84170;-55
2022/03/21 10:43:04;;;;;;;17.33;9.88;;;23.40;99.90;;;;;;10455932;27;84897;-54
2022/03/21 10:48:07;;;;;;;16.35;10.55;;;22.90;99.90;;;;;;10454472;28;84136;-52
2022/03/21 10:53:20;;;;;;;16.65;9.95;;;22.60;99.90;;;;;;10453614;28;85118;-52
2022/03/21 10:58:33;;;;;;;15.85;10.70;;;22.90;90.70;;;;;;10454960;27;84464;-53
2022/03/21 11:03:34;;;;;;;17.00;10.85;;;23.40;91.10;;;;;;10455601;27;84305;-54
2022/03/21 11:08:36;;;;;;;18.05;10.15;;;23.50;70.10;;;;;;10454085;27;84925;-54
2022/03/21 11:13:38;;;;;;;18.60;10.68;;;22.80;37.00;;;;;;10454602;27;84353;-56
2022/03/21 11:18:40;;;;;;;18.33;10.50;;;23.00;25.30;;;;;;10453926;27;84951;-55
2022/03/21 11:23:41;;;;;;;17.98;11.25;;;23.20;23.70;;;;;;10455024;27;84037;-55
2022/03/21 11:29:09;;;;;;;18.48;11.50;;;23.40;41.90;;;;;;10453136;28;86060;-55
2022/03/21 11:34:37;;;;;;;18.42;11.07;;;23.70;47.70;;;;;;10454592;28;84764;-55
2022/03/21 11:39:38;;;;;;;19.17;11.30;;;23.60;48.10;;;;;;10452883;28;86931;-58
2022/03/21 11:44:39;;;;;;;20.48;11.73;;;23.30;30.00;;;;;;10453516;28;87188;-55
2022/03/21 11:49:40;;;;;;;20.48;11.70;;;23.40;33.00;;;;;;10453103;27;84233;-53
2022/03/21 11:54:43;;;;;;;18.65;10.65;;;23.90;26.40;;;;;;10454605;27;85200;-56
2022/03/21 11:59:50;;;;;;;17.90;11.43;;;24.10;16.10;;;;;;10452494;28;84768;-54
2022/03/21 12:05:02;;;;;;;19.88;11.23;;;24.30;9.10;;;;;;10453796;28;84963;-50
2022/03/21 12:10:03;;;;;;;19.98;11.35;;;24.20;1.00;;;;;;10450704;28;86062;-52
2022/03/21 12:15:14;;;;;;;17.88;11.68;;;24.20;1.00;;;;;;10453238;27;84133;-55
2022/03/21 12:20:18;;;;;;;17.27;10.52;;;24.30;1.00;;;;;;10452771;28;85071;-54
2022/03/21 12:25:28;;;;;;;18.90;11.13;;;24.70;1.00;;;;;;10450595;28;85176;-54
2022/03/21 12:30:32;;;;;;;18.77;11.75;;;25.20;1.00;;;;;;10452413;28;84730;-55
2022/03/21 12:35:40;;;;;;;19.92;11.98;;;25.10;1.00;;;;;;10452479;28;84225;-56
2022/03/21 12:40:52;;;;;;;17.30;10.90;;;24.70;1.00;;;;;;10452634;27;83925;-57
2022/03/21 12:46:07;;;;;;;17.45;11.02;;;24.80;1.00;;;;;;10453470;27;84022;-55
2022/03/21 12:51:09;;;;;;;18.52;11.05;;;24.80;1.00;;;;;;10452643;28;84900;-52
2022/03/21 12:56:12;;;;;;;17.30;10.60;;;25.50;1.00;;;;;;10406549;22;84350;-52
2022/03/21 13:01:17;;;;;;;17.85;10.75;;;25.20;1.00;;;;;;10367340;28;84197;-50
2022/03/21 13:11:36;;;;;;;;;;;24.70;1.00;;;;;;10368561;28;84380;-54
2022/03/21 13:16:44;;;;;;;;;;;24.40;1.00;;;;;;10367193;28;85422;-55
2022/03/21 13:21:45;;;;;;;;;;;24.60;1.00;;;;;;10368264;28;84110;-52
2022/03/21 13:26:45;;;;;;;;;;;25.00;1.00;;;;;;10367608;28;84404;-56
2022/03/21 13:31:53;;;;;;;;;;;24.90;1.00;;;;;;10368407;28;84105;-56
2022/03/21 13:36:54;;;;;;;;;;;24.50;1.00;;;;;;10366071;28;86302;-54
2022/03/21 13:41:58;;;;;;;;;;;24.60;1.00;;;;;;10368308;28;84257;-56
2022/03/21 13:46:59;;;;;;;;;;;23.90;1.00;;;;;;10364870;28;84963;-52
2022/03/21 13:51:59;;;;;;;;;;;24.10;1.00;;;;;;10367783;28;84982;-55
2022/03/21 13:57:06;;;;;;;;;;;23.90;1.00;;;;;;10364953;28;88494;-52
2022/03/21 14:02:09;;;;;;;;;;;24.10;1.00;;;;;;10366919;28;84119;-55
2022/03/21 14:07:09;;;;;;;;;;;23.30;1.00;;;;;;10366053;28;84193;-57
2022/03/21 14:12:11;;;;;;;;;;;22.60;1.00;;;;;;10367883;28;84760;-55
2022/03/21 14:17:12;;;;;;;;;;;22.80;1.00;;;;;;10372631;28;84986;-55
2022/03/21 14:22:13;;;;;;;;;;;23.00;1.00;;;;;;10373255;28;84942;-56
2022/03/21 14:27:13;;;;;;;;;;;23.10;1.00;;;;;;10371412;28;84271;-55
2022/03/21 14:32:14;;;;;;;;;;;23.20;1.00;;;;;;10373508;28;84924;-55
2022/03/21 14:37:15;;;;;;;;;;;23.50;1.00;;;;;;10372529;28;84791;-56
2022/03/21 14:42:16;;;;;;;;;;;23.40;1.00;;;;;;10373007;28;84153;-56
2022/03/21 14:47:16;;;;;;;;;;;22.80;1.00;;;;;;10371458;28;84089;-56
2022/03/21 14:52:17;;;;;;;;;;;22.80;1.00;;;;;;10371613;28;84251;-54
2022/03/21 14:57:17;;;;;;;;;;;23.00;1.00;;;;;;10372013;28;84218;-56
2022/03/21 15:02:18;;;;;;;;;;;22.60;1.00;;;;;;10372960;28;84189;-51
2022/03/21 15:07:19;;;;;;;;;;;22.30;1.00;;;;;;10370748;28;86202;-52
2022/03/21 15:12:22;;;;;;;;;;;22.10;1.00;;;;;;10372959;28;84118;-55
2022/03/21 15:17:23;;;;;;;;;;;21.70;1.00;;;;;;10347206;28;84948;-58
2022/03/21 15:22:23;;;;;;;;;;;20.90;1.00;;;;;;10364759;28;85171;-57
2022/03/21 15:27:24;;;;;;;;;;;20.60;1.00;;;;;;10368914;28;84081;-56
2022/03/21 15:32:25;;;;;;;;;;;20.10;1.00;;;;;;10370737;28;84746;-55
2022/03/21 15:42:44;;;;;;;;;;;19.50;1.00;;;;;;10370081;28;84469;-56
2022/03/21 15:47:45;;;;;;;;;;;19.30;2.10;;;;;;10369047;28;84946;-58
2022/03/21 15:52:46;;;;;;;;;;;19.10;14.60;;;;;;10369625;28;84957;-61
2022/03/21 15:57:52;;;;;;;;;;;18.90;39.70;;;;;;10367537;28;84339;-60
2022/03/21 16:02:57;;;;;;;;;;;18.80;57.30;;;;;;10367877;28;84133;-59
2022/03/21 16:07:58;;;;;;;;;;;18.80;62.10;;;;;;10367158;28;86995;-56
2022/03/21 16:12:58;;;;;;;;;;;18.60;95.20;;;;;;10369086;28;84850;-60
2022/03/21 16:18:02;;;;;;;;;;;18.40;99.90;;;;;;10367825;28;84399;-61
2022/03/21 16:23:05;;;;;;;;;;;18.50;99.90;;;;;;10362065;28;85243;-56
2022/03/21 16:28:06;;;;;;;;;;;18.40;99.90;;;;;;10368410;28;85015;-57
2022/03/21 16:33:08;;;;;;;;;;;18.20;99.90;;;;;;10369294;28;84860;-59
2022/03/21 16:38:08;;;;;;;;;;;18.20;99.90;;;;;;10367096;28;84398;-57
2022/03/21 16:43:09;;;;;;;;;;;18.00;99.90;;;;;;10366292;28;84938;-58
2022/03/21 16:48:10;;;;;;;;;;;18.00;99.90;;;;;;10362430;28;84967;-59
2022/03/21 16:53:10;;;;;;;;;;;17.80;99.90;;;;;;10361486;28;84271;-53
2022/03/21 16:58:11;;;;;;;;;;;17.70;99.90;;;;;;10366997;28;84103;-56
2022/03/21 17:03:11;;;;;;;;;;;17.60;99.90;;;;;;10346013;28;85043;-53
2022/03/21 17:08:12;;;;;;;;;;;17.60;99.90;;;;;;10343541;28;85005;-53
2022/03/21 17:13:13;;;;;;;;;;;17.50;1.00;;;;;;10353567;28;84366;-57
2022/03/21 17:23:32;;;;;;;;;;;17.20;1.00;;;;;;10343318;28;84710;-53
2022/03/21 17:28:33;;;;;;;;;;;17.10;1.00;;;;;;10333602;28;84217;-56
2022/03/21 17:33:34;;;;;;;;;;;17.00;1.00;;;;;;10336159;28;85057;-55
2022/03/21 17:38:36;;;;;;;;;;;16.90;1.00;;;;;;10349637;28;84244;-59
2022/03/21 17:43:36;;;;;;;;;;;16.80;1.00;;;;;;10343144;28;84293;-54
2022/03/21 17:48:37;;;;;;;;;;;16.70;1.00;;;;;;10333330;28;85222;-52
2022/03/21 17:53:38;;;;;;;;;;;16.50;65.40;;;;;;10340254;28;84328;-52
2022/03/21 17:58:39;;;;;;;;;;;16.50;99.90;;;;;;10338679;28;85680;-51
2022/03/21 18:03:40;;;;;;;;;;;16.40;99.90;;;;;;10338898;28;84867;-54
2022/03/21 18:08:42;;;;;;;;;;;16.20;99.90;;;;;;10343608;28;84904;-52
2022/03/21 18:13:43;;;;;;;;;;;16.20;99.90;;;;;;10335884;28;85398;-51
2022/03/21 18:18:44;;;;;;;;;;;16.00;99.90;;;;;;10347649;28;85765;-54
2022/03/21 18:23:44;;;;;;;;;;;15.90;1.00;;;;;;10335858;28;84296;-51
2022/03/21 18:28:45;;;;;;;;;;;15.90;1.00;;;;;;10331007;28;84705;-52
2022/03/21 18:33:45;;;;;;;;;;;15.80;1.00;;;;;;10333470;28;84872;-55
2022/03/21 18:38:46;;;;;;;;;;;15.70;1.00;;;;;;10333579;28;85928;-52
2022/03/21 18:43:47;;;;;;;;;;;15.50;1.00;;;;;;10331127;28;84687;-51
2022/03/21 18:48:47;;;;;;;;;;;15.50;1.00;;;;;;10347852;28;84083;-50
2022/03/21 18:53:48;;;;;;;;;;;15.40;1.00;;;;;;10407570;22;84988;-50
2022/03/21 18:58:49;;;;;;;;;;;15.30;99.90;;;;;;10449621;27;84518;-56
2022/03/21 19:03:49;;;;;;;;;;;15.20;99.90;;;;;;10444299;27;84296;-53
2022/03/21 19:08:50;;;;;;;;;;;15.10;99.90;;;;;;10433824;27;84889;-55
2022/03/21 19:13:51;;;;;;;;;;;15.00;99.90;;;;;;10424819;27;84816;-56
2022/03/21 19:18:51;;;;;;;;;;;14.90;1.00;;;;;;10421231;28;84857;-51
2022/03/21 19:23:52;;;;;;;;;;;14.80;1.00;;;;;;10419972;28;87693;-58
2022/03/21 19:28:52;;;;;;;;;;;14.70;1.00;;;;;;10425734;27;85744;-56
2022/03/21 19:33:53;;;;;;;;;;;14.60;1.00;;;;;;10432568;27;84285;-56
2022/03/21 19:38:53;;;;;;;;;;;14.50;75.70;;;;;;10413458;27;85924;-55
2022/03/21 19:43:55;;;;;;;;;;;14.50;99.90;;;;;;10433079;27;84976;-50
2022/03/21 19:48:55;;;;;;;;;;;14.40;99.90;;;;;;10427526;28;84832;-57
2022/03/21 19:53:56;;;;;;;;;;;14.30;99.90;;;;;;10433904;28;84201;-55
2022/03/21 19:58:56;;;;;;;;;;;14.30;1.00;;;;;;10427400;28;84868;-52
2022/03/21 20:03:57;;;;;;;;;;;14.20;1.00;;;;;;10429042;27;85036;-51
2022/03/21 20:08:57;;;;;;;;;;;14.10;1.00;;;;;;10433154;27;84272;-53
2022/03/21 20:13:58;;;;;;;;;;;14.00;1.00;;;;;;10436299;27;85436;-51
2022/03/21 20:18:58;;;;;;;;;;;13.90;1.00;;;;;;10427008;28;84932;-50
2022/03/21 20:23:59;;;;;;;;;;;13.80;1.00;;;;;;10434035;28;85024;-57
2022/03/21 20:29:00;;;;;;;;;;;13.70;46.60;;;;;;10426004;27;85356;-53
2022/03/21 20:34:01;;;;;;;;;;;13.60;99.90;;;;;;10420357;27;84878;-54
2022/03/21 20:39:02;;;;;;;;;;;13.60;99.90;;;;;;10427194;27;86476;-54
2022/03/21 20:44:04;;;;;;;;;;;13.50;1.00;;;;;;10475458;27;85707;-55
2022/03/21 20:49:05;;;;;;;;;;;13.40;1.00;;;;;;10456217;27;84206;-56
2022/03/21 20:54:05;;;;;;;;;;;13.30;1.00;;;;;;10453340;28;84995;-54
2022/03/21 20:59:06;;;;;;;;;;;13.20;1.00;;;;;;10472082;27;84877;-53
2022/03/21 21:04:06;;;;;;;;;;;13.20;90.10;;;;;;10493897;27;85230;-55
2022/03/21 21:09:07;;;;;;;;;;;13.10;1.00;;;;;;10475283;27;84572;-54
2022/03/21 21:14:07;;;;;;;;;;;13.00;1.00;;;;;;10452730;28;84943;-58
2022/03/21 21:19:08;;;;;;;;;;;13.00;1.00;;;;;;10433124;27;85256;-55
2022/03/21 21:24:09;;;;;;;;;;;12.80;1.00;;;;;;10414026;28;84043;-56
2022/03/21 21:29:10;;;;;;;;;;;12.70;1.00;;;;;;10434291;28;85825;-56
2022/03/21 21:34:11;;;;;;;;;;;12.60;1.00;;;;;;10460421;27;85312;-58
2022/03/21 21:39:13;;;;;;;;;;;12.60;1.00;;;;;;10431453;28;86264;-52
2022/03/21 21:44:13;;;;;;;;;;;12.50;1.00;;;;;;10458174;28;84238;-53
2022/03/21 21:49:14;;;;;;;;;;;12.40;1.00;;;;;;10456658;28;85935;-56
2022/03/21 21:54:15;;;;;;;;;;;12.40;1.00;;;;;;10459355;28;84833;-51
2022/03/21 21:59:15;;;;;;;;;;;12.30;99.90;;;;;;10453462;28;84157;-53
2022/03/21 22:04:16;;;;;;;;;;;12.20;1.00;;;;;;10457269;27;85486;-52
2022/03/21 22:09:17;;;;;;;;;;;12.20;1.00;;;;;;10460836;27;84168;-58
2022/03/21 22:14:18;;;;;;;;;;;12.10;99.90;;;;;;10460382;28;85036;-54
2022/03/21 22:19:21;;;;;;;;;;;12.00;1.00;;;;;;10422161;28;86556;-56
2022/03/21 22:24:21;;;;;;;;;;;12.00;1.00;;;;;;10425746;28;84103;-52
2022/03/21 22:29:22;;;;;;;;;;;11.90;1.00;;;;;;10459566;27;84708;-55
2022/03/21 22:34:23;;;;;;;;;;;11.90;1.00;;;;;;10500678;27;85082;-56
2022/03/21 22:39:23;;;;;;;;;;;11.90;1.00;;;;;;10460886;27;85675;-55
2022/03/21 22:49:47;;;;;;;;;;;11.70;1.00;;;;;;10463591;27;84864;-56
2022/03/21 22:54:48;;;;;;;;;;;11.60;1.00;;;;;;10457785;27;84827;-56
2022/03/21 22:59:49;;;;;;;;;;;11.60;1.00;;;;;;10458549;27;84371;-51
2022/03/21 23:04:49;;;;;;;;;;;11.50;1.00;;;;;;10457156;28;86199;-54
2022/03/21 23:09:50;;;;;;;;;;;11.40;1.00;;;;;;10452210;28;86976;-55
2022/03/21 23:14:51;;;;;;;;;;;11.30;99.90;;;;;;10455406;27;84099;-52
2022/03/21 23:19:51;;;;;;;;;;;11.20;99.90;;;;;;10432361;28;84944;-53
2022/03/21 23:24:52;;;;;;;;;;;11.10;99.90;;;;;;10413454;28;85007;-52
2022/03/21 23:29:52;;;;;;;;;;;11.00;1.00;;;;;;10435068;28;84819;-50
2022/03/21 23:34:53;;;;;;;;;;;11.00;1.00;;;;;;10453015;28;84972;-55
2022/03/21 23:45:13;;;;;;;;;;;10.80;1.00;;;;;;10411916;28;84149;-52
2022/03/21 23:50:13;;;;;;;;;;;10.80;1.00;;;;;;10437322;28;84213;-53
2022/03/21 23:55:14;;;;;;;;;;;10.70;1.00;;;;;;10452089;28;85768;-50
